Time;durP1;ratioP1;P1;durP2;ratioP2;P2;SDS_P1;SDS_P2;PMS_P1;PMS_P2;Temp;Humidity;BMP_temperature;BMP_pressure;BME280_temperature;BME280_humidity;BME280_pressure;Samples;Min_cycle;Max_cycle;Signal;HPM_P1;HPM_P2
2024/02/26 05:30:45;;;;;;;0.10;0.10;;;9.10;91.60;;;;;;6151851;23;20032;-75
2024/02/26 05:33:11;;;;;;;0.10;0.10;;;9.10;91.60;;;;;;6154290;23;20421;-74
2024/02/26 05:35:37;;;;;;;0.10;0.10;;;9.10;91.90;;;;;;6159209;23;20017;-74
2024/02/26 05:38:03;;;;;;;0.10;0.10;;;9.10;91.70;;;;;;6159184;23;20052;-74
2024/02/26 05:40:29;;;;;;;0.10;0.10;;;9.10;91.60;;;;;;6159168;23;20006;-74
2024/02/26 05:42:55;;;;;;;0.13;0.13;;;9.00;91.70;;;;;;6158320;23;20005;-74
2024/02/26 05:45:21;;;;;;;0.10;0.10;;;9.10;91.90;;;;;;6160934;23;20029;-74
2024/02/26 05:47:47;;;;;;;0.10;0.10;;;9.00;91.70;;;;;;6160769;23;20056;-74
2024/02/26 05:50:14;;;;;;;0.10;0.10;;;9.00;91.90;;;;;;6183746;23;20005;-74
2024/02/26 05:52:40;;;;;;;0.10;0.10;;;9.00;91.70;;;;;;6160294;23;20345;-74
2024/02/26 05:55:06;;;;;;;0.10;0.10;;;9.00;91.80;;;;;;6160837;23;20130;-74
2024/02/26 05:57:35;;;;;;;0.10;0.10;;;9.00;91.60;;;;;;6160909;23;20019;-74
2024/02/26 06:00:03;;;;;;;0.10;0.10;;;8.90;91.10;;;;;;6160397;23;20441;-74
2024/02/26 06:02:32;;;;;;;0.10;0.10;;;8.90;91.30;;;;;;6157747;23;20005;-74
2024/02/26 06:04:59;;;;;;;0.10;0.10;;;8.80;91.20;;;;;;6161078;23;20346;-74
2024/02/26 06:07:24;;;;;;;0.10;0.10;;;8.80;91.20;;;;;;6160947;23;19998;-75
2024/02/26 06:09:50;;;;;;;0.10;0.10;;;8.80;91.10;;;;;;6160668;23;19998;-74
2024/02/26 06:12:16;;;;;;;0.10;0.10;;;8.80;90.90;;;;;;6160787;23;20421;-74
2024/02/26 06:14:44;;;;;;;0.10;0.10;;;8.80;91.30;;;;;;6160810;23;20061;-74
2024/02/26 06:17:10;;;;;;;0.10;0.10;;;8.80;91.00;;;;;;6183780;23;20032;-74
2024/02/26 06:19:35;;;;;;;0.10;0.10;;;8.70;91.00;;;;;;6183913;23;20386;-74
2024/02/26 06:22:01;;;;;;;0.10;0.10;;;8.70;91.10;;;;;;6160695;23;20056;-74
2024/02/26 06:24:27;;;;;;;0.10;0.10;;;8.70;91.20;;;;;;6159919;23;20001;-74
2024/02/26 06:26:52;;;;;;;0.10;0.10;;;8.70;91.40;;;;;;6160729;23;20001;-74
2024/02/26 06:29:18;;;;;;;0.10;0.10;;;8.70;91.40;;;;;;6160221;23;20445;-74
2024/02/26 06:31:43;;;;;;;0.10;0.10;;;8.70;91.20;;;;;;6160716;23;20041;-74
2024/02/26 06:34:09;;;;;;;0.10;0.10;;;8.60;90.80;;;;;;6160455;23;20012;-74
2024/02/26 06:36:35;;;;;;;0.10;0.10;;;8.60;91.20;;;;;;6160167;23;20035;-74
2024/02/26 06:39:00;;;;;;;0.10;0.10;;;8.60;91.10;;;;;;6160473;23;20009;-74
2024/02/26 06:41:27;;;;;;;0.10;0.10;;;8.60;91.50;;;;;;6158765;23;20426;-74
2024/02/26 06:43:56;;;;;;;0.10;0.10;;;8.60;91.60;;;;;;6160355;23;20002;-74
2024/02/26 06:46:22;;;;;;;0.10;0.10;;;8.60;91.60;;;;;;6160363;23;20426;-74
2024/02/26 06:48:49;;;;;;;0.10;0.10;;;8.60;91.00;;;;;;6159781;23;20006;-75
2024/02/26 06:51:14;;;;;;;0.10;0.10;;;8.60;91.30;;;;;;6160505;23;20009;-75
2024/02/26 06:53:40;;;;;;;0.10;0.10;;;8.50;91.30;;;;;;6160224;23;20006;-74
2024/02/26 06:56:06;;;;;;;0.10;0.10;;;8.50;91.00;;;;;;6160476;23;20427;-74
2024/02/26 06:58:31;;;;;;;0.10;0.10;;;8.50;91.60;;;;;;6158556;23;20005;-74
2024/02/26 07:00:57;;;;;;;0.10;0.10;;;8.50;91.60;;;;;;6183587;23;20446;-74
2024/02/26 07:03:24;;;;;;;0.10;0.10;;;8.50;91.40;;;;;;6159626;23;20041;-74
2024/02/26 07:05:50;;;;;;;0.10;0.10;;;8.50;91.40;;;;;;6160583;23;19997;-74
2024/02/26 07:08:16;;;;;;;0.10;0.10;;;8.50;91.10;;;;;;6160172;23;19998;-74
2024/02/26 07:10:41;;;;;;;0.10;0.10;;;8.50;91.20;;;;;;6183392;23;20025;-74
2024/02/26 07:13:07;;;;;;;0.13;0.13;;;8.40;91.20;;;;;;6158261;23;20005;-74
2024/02/26 07:15:33;;;;;;;0.13;0.13;;;8.50;91.70;;;;;;6183288;23;20395;-74
2024/02/26 07:18:02;;;;;;;0.10;0.10;;;8.50;91.40;;;;;;6159611;23;20002;-75
2024/02/26 07:20:31;;;;;;;0.10;0.10;;;8.50;91.20;;;;;;6160057;23;20008;-74
2024/02/26 07:22:57;;;;;;;0.10;0.10;;;8.60;91.40;;;;;;6159713;23;20005;-74
2024/02/26 07:25:24;;;;;;;0.10;0.10;;;8.50;91.20;;;;;;6159827;23;20470;-74
2024/02/26 07:27:50;;;;;;;0.10;0.10;;;8.60;90.80;;;;;;6158499;23;20092;-74
2024/02/26 07:30:16;;;;;;;0.10;0.10;;;8.40;90.20;;;;;;6159289;23;20001;-75
2024/02/26 07:32:43;;;;;;;0.20;0.20;;;8.40;90.80;;;;;;6160251;23;20010;-74
2024/02/26 07:35:08;;;;;;;0.10;0.10;;;8.40;90.90;;;;;;6160031;23;20052;-74
2024/02/26 07:37:34;;;;;;;0.10;0.10;;;8.40;91.00;;;;;;6159722;23;20005;-74
2024/02/26 07:40:00;;;;;;;0.10;0.10;;;8.40;90.20;;;;;;6159839;23;20085;-74
2024/02/26 07:42:26;;;;;;;0.10;0.10;;;8.30;90.00;;;;;;6158261;23;20005;-74
2024/02/26 07:44:52;;;;;;;0.10;0.10;;;8.40;90.30;;;;;;6159867;23;20005;-74
2024/02/26 07:47:18;;;;;;;0.10;0.10;;;8.50;90.10;;;;;;6160185;23;20006;-74
2024/02/26 07:49:44;;;;;;;0.10;0.10;;;8.40;89.50;;;;;;6159729;23;20521;-74
2024/02/26 07:52:10;;;;;;;0.10;0.10;;;8.40;89.50;;;;;;6159187;23;20064;-74
2024/02/26 07:54:36;;;;;;;0.10;0.10;;;8.40;89.20;;;;;;6159969;23;20081;-75
2024/02/26 07:57:05;;;;;;;0.10;0.10;;;8.40;89.40;;;;;;6160007;23;20342;-74
2024/02/26 07:59:31;;;;;;;0.10;0.10;;;8.40;89.50;;;;;;6159526;23;20005;-74
2024/02/26 08:01:57;;;;;;;0.10;0.10;;;8.40;89.20;;;;;;6159775;23;20016;-74
2024/02/26 08:04:22;;;;;;;0.10;0.10;;;8.40;89.30;;;;;;6159298;23;20032;-74
2024/02/26 08:06:48;;;;;;;0.20;0.20;;;8.40;89.20;;;;;;6182505;23;20009;-74
2024/02/26 08:09:13;;;;;;;0.10;0.10;;;8.40;89.30;;;;;;6159625;23;20002;-75
2024/02/26 08:11:39;;;;;;;0.10;0.10;;;8.50;89.30;;;;;;6159409;23;20340;-74
2024/02/26 08:14:05;;;;;;;0.10;0.10;;;8.40;89.00;;;;;;6159314;23;20755;-74
2024/02/26 08:16:30;;;;;;;0.10;0.10;;;8.40;89.20;;;;;;6182610;23;20532;-74
2024/02/26 08:18:56;;;;;;;0.10;0.10;;;8.30;88.30;;;;;;6158992;23;20005;-74
2024/02/26 08:21:21;;;;;;;0.10;0.10;;;8.30;88.70;;;;;;6159870;23;20012;-74
2024/02/26 08:23:47;;;;;;;0.10;0.10;;;8.20;88.50;;;;;;6159830;23;20005;-74
2024/02/26 08:26:13;;;;;;;0.10;0.10;;;8.30;88.90;;;;;;6159085;23;20073;-74
2024/02/26 08:28:38;;;;;;;0.10;0.10;;;8.30;88.40;;;;;;6159760;23;20376;-74
2024/02/26 08:31:04;;;;;;;0.10;0.10;;;8.20;88.10;;;;;;6159144;23;20350;-74
2024/02/26 08:33:30;;;;;;;0.10;0.10;;;8.20;88.40;;;;;;6159145;23;20009;-74
2024/02/26 08:35:56;;;;;;;0.10;0.10;;;8.20;88.80;;;;;;6159526;23;20323;-74
2024/02/26 08:38:22;;;;;;;0.10;0.10;;;8.20;88.30;;;;;;6159428;23;20012;-74
2024/02/26 08:40:48;;;;;;;0.10;0.10;;;8.30;88.40;;;;;;6159345;23;20005;-74
2024/02/26 08:43:14;;;;;;;0.20;0.20;;;8.40;88.20;;;;;;6159302;23;20533;-74
2024/02/26 08:45:39;;;;;;;0.10;0.10;;;8.40;88.20;;;;;;6159531;23;20002;-75
2024/02/26 08:48:05;;;;;;;0.20;0.20;;;8.40;87.60;;;;;;6159534;23;20002;-74
2024/02/26 08:50:31;;;;;;;0.10;0.10;;;8.30;87.70;;;;;;6182768;23;20405;-75
2024/02/26 08:52:57;;;;;;;0.10;0.10;;;8.30;87.20;;;;;;6159083;23;20001;-74
2024/02/26 08:55:22;;;;;;;0.17;0.17;;;8.30;87.90;;;;;;6159176;23;20002;-74
2024/02/26 08:57:48;;;;;;;0.10;0.10;;;8.20;87.70;;;;;;6159510;23;20002;-75
2024/02/26 09:00:15;;;;;;;0.15;0.15;;;8.30;88.00;;;;;;6159040;23;20583;-74
2024/02/26 09:02:43;;;;;;;0.10;0.10;;;8.30;87.90;;;;;;6159143;23;20033;-74
2024/02/26 09:05:10;;;;;;;0.20;0.20;;;8.20;87.30;;;;;;6158812;23;20029;-74
2024/02/26 09:07:36;;;;;;;0.10;0.10;;;8.20;87.30;;;;;;6157740;23;20029;-74
2024/02/26 09:10:02;;;;;;;0.10;0.10;;;8.20;87.70;;;;;;6159379;23;20084;-74
2024/02/26 09:12:28;;;;;;;0.10;0.10;;;8.20;87.40;;;;;;6157604;23;20016;-75
2024/02/26 09:14:56;;;;;;;0.20;0.20;;;8.30;87.30;;;;;;6158976;23;20005;-74
2024/02/26 09:17:21;;;;;;;0.10;0.10;;;8.30;86.90;;;;;;6159709;23;20008;-74
2024/02/26 09:19:48;;;;;;;0.10;0.10;;;8.30;86.20;;;;;;6160751;23;20002;-74
2024/02/26 09:22:13;;;;;;;0.10;0.10;;;8.20;85.90;;;;;;6160696;23;20005;-74
2024/02/26 09:24:39;;;;;;;0.20;0.20;;;8.30;86.60;;;;;;6161437;23;20083;-74
2024/02/26 09:27:04;;;;;;;0.10;0.10;;;8.30;86.20;;;;;;6161228;23;20029;-74
2024/02/26 09:29:30;;;;;;;0.10;0.10;;;8.30;85.80;;;;;;6160795;23;20002;-74
2024/02/26 09:31:56;;;;;;;0.20;0.20;;;8.30;85.10;;;;;;6161126;23;20402;-74
2024/02/26 09:34:21;;;;;;;0.10;0.10;;;8.30;85.90;;;;;;6160993;23;20492;-74
2024/02/26 09:36:47;;;;;;;0.10;0.10;;;8.20;85.30;;;;;;6159233;23;20465;-74
2024/02/26 09:39:14;;;;;;;0.20;0.20;;;8.30;85.80;;;;;;6161294;23;20076;-74
2024/02/26 09:41:40;;;;;;;0.10;0.10;;;8.30;85.50;;;;;;6161030;23;20001;-74
2024/02/26 09:44:06;;;;;;;0.10;0.10;;;8.20;85.90;;;;;;6160672;23;20052;-74
2024/02/26 09:46:32;;;;;;;0.10;0.10;;;8.30;86.10;;;;;;6159663;23;20013;-74
2024/02/26 09:48:58;;;;;;;0.10;0.10;;;8.20;85.70;;;;;;6159019;23;20009;-74
2024/02/26 09:51:28;;;;;;;0.10;0.10;;;8.20;84.80;;;;;;6160909;23;20060;-74
2024/02/26 09:53:56;;;;;;;0.10;0.10;;;8.30;85.30;;;;;;6160951;23;20104;-74
2024/02/26 09:56:22;;;;;;;0.10;0.10;;;8.30;84.70;;;;;;6160880;23;20002;-74
2024/02/26 09:58:53;;;;;;;0.10;0.10;;;8.30;84.80;;;;;;6160809;23;20001;-74
2024/02/26 10:01:20;;;;;;;0.20;0.20;;;8.40;84.60;;;;;;6160400;23;20013;-74
2024/02/26 10:03:52;;;;;;;0.10;0.10;;;8.40;84.30;;;;;;6161104;23;20001;-74
2024/02/26 10:06:18;;;;;;;0.10;0.10;;;8.40;84.20;;;;;;6160579;23;19997;-74
2024/02/26 10:08:44;;;;;;;0.10;0.10;;;8.40;83.70;;;;;;6160819;23;20504;-74
2024/02/26 10:11:10;;;;;;;0.20;0.20;;;8.50;82.60;;;;;;6160829;23;20445;-75
2024/02/26 10:13:36;;;;;;;0.10;0.10;;;8.50;83.30;;;;;;6160930;23;20006;-74
2024/02/26 10:16:03;;;;;;;0.10;0.10;;;8.60;82.20;;;;;;6183490;23;20016;-74
2024/02/26 10:18:51;;;;;;;0.20;0.20;;;8.80;83.50;;;;;;6160435;23;20093;-74
2024/02/26 10:21:20;;;;;;;0.10;0.10;;;8.80;81.80;;;;;;6183585;23;20065;-74
2024/02/26 10:23:47;;;;;;;0.17;0.17;;;8.80;82.40;;;;;;6159433;23;20001;-74
2024/02/26 10:26:13;;;;;;;0.20;0.20;;;8.80;82.60;;;;;;6160168;23;20124;-74
2024/02/26 10:28:40;;;;;;;0.10;0.10;;;8.70;81.80;;;;;;6160328;23;20049;-74
2024/02/26 10:31:06;;;;;;;0.20;0.20;;;8.70;82.40;;;;;;6183291;23;20025;-74
2024/02/26 10:33:36;;;;;;;0.10;0.10;;;8.70;82.00;;;;;;6158616;23;20014;-74
2024/02/26 10:36:05;;;;;;;0.10;0.10;;;8.70;81.80;;;;;;6160473;23;20054;-74
2024/02/26 10:38:33;;;;;;;0.10;0.10;;;8.70;81.30;;;;;;6160201;23;20434;-74
2024/02/26 10:40:58;;;;;;;0.20;0.20;;;8.90;81.20;;;;;;6160118;23;20005;-74
2024/02/26 10:43:25;;;;;;;0.10;0.10;;;9.00;80.80;;;;;;6158647;23;20346;-74
2024/02/26 10:45:51;;;;;;;0.20;0.20;;;9.00;80.40;;;;;;6160566;23;20028;-74
2024/02/26 10:48:18;;;;;;;0.20;0.20;;;9.10;80.80;;;;;;6160777;23;20029;-74
2024/02/26 10:50:44;;;;;;;0.20;0.20;;;9.20;80.30;;;;;;6159091;23;20033;-74
2024/02/26 10:53:19;;;;;;;0.10;0.10;;;9.20;79.80;;;;;;6159985;23;20027;-75
2024/02/26 10:55:59;;;;;;;0.13;0.13;;;9.20;80.20;;;;;;6158930;23;20011;-74
2024/02/26 10:58:25;;;;;;;0.20;0.20;;;9.20;78.70;;;;;;6159827;23;20426;-74
2024/02/26 11:00:52;;;;;;;0.10;0.10;;;9.40;78.60;;;;;;6160335;23;20008;-74
2024/02/26 11:03:22;;;;;;;0.10;0.10;;;9.30;78.40;;;;;;6160544;23;20005;-74
2024/02/26 11:05:50;;;;;;;0.10;0.10;;;9.40;78.40;;;;;;6159685;23;20011;-74
2024/02/26 11:08:19;;;;;;;0.15;0.15;;;9.30;79.00;;;;;;6160334;23;20001;-75
2024/02/26 11:10:48;;;;;;;0.17;0.17;;;9.20;79.10;;;;;;6159986;23;20002;-74
2024/02/26 11:13:18;;;;;;;0.10;0.10;;;9.20;79.10;;;;;;6159827;23;19997;-74
2024/02/26 11:15:47;;;;;;;0.10;0.10;;;9.20;79.80;;;;;;6159761;23;20002;-74
2024/02/26 11:18:14;;;;;;;0.10;0.10;;;9.20;80.00;;;;;;6159872;23;20510;-74
2024/02/26 11:20:41;;;;;;;0.10;0.10;;;9.00;80.80;;;;;;6160054;23;20044;-74
2024/02/26 11:23:07;;;;;;;0.10;0.10;;;9.10;81.20;;;;;;6160112;23;20009;-74
2024/02/26 11:25:33;;;;;;;0.10;0.10;;;9.00;81.40;;;;;;6160133;23;20115;-74
2024/02/26 11:28:03;;;;;;;0.10;0.10;;;8.90;81.90;;;;;;6159612;23;20457;-74
2024/02/26 11:30:32;;;;;;;0.10;0.10;;;8.80;82.70;;;;;;6157318;23;20018;-74
2024/02/26 11:32:58;;;;;;;0.10;0.10;;;8.60;83.30;;;;;;6159730;23;20435;-74
2024/02/26 11:35:24;;;;;;;0.10;0.10;;;8.50;83.90;;;;;;6160084;23;20076;-75
2024/02/26 11:37:57;;;;;;;0.10;0.10;;;8.50;83.50;;;;;;6159837;23;20636;-74
2024/02/26 11:40:26;;;;;;;0.10;0.10;;;8.50;84.40;;;;;;6160082;23;20006;-74
2024/02/26 11:42:53;;;;;;;0.10;0.10;;;8.60;84.80;;;;;;6159096;23;20055;-74
2024/02/26 11:45:46;;;;;;;0.10;0.10;;;8.60;84.90;;;;;;6183225;23;20084;-74
2024/02/26 11:48:17;;;;;;;0.20;0.20;;;8.40;86.60;;;;;;6182745;23;20013;-75
2024/02/26 11:50:47;;;;;;;0.10;0.10;;;8.20;85.80;;;;;;6158288;23;20006;-74
2024/02/26 11:53:20;;;;;;;0.10;0.10;;;8.10;85.90;;;;;;6159311;23;20003;-75
2024/02/26 11:55:45;;;;;;;0.10;0.10;;;8.00;85.70;;;;;;6158214;23;20002;-75
2024/02/26 11:58:11;;;;;;;0.10;0.10;;;8.00;85.70;;;;;;6159666;23;20053;-75
2024/02/26 12:00:39;;;;;;;0.10;0.10;;;8.10;85.70;;;;;;6182907;23;20072;-76
2024/02/26 12:03:08;;;;;;;0.10;0.10;;;8.10;85.80;;;;;;6157617;23;20012;-75
2024/02/26 12:05:36;;;;;;;0.10;0.10;;;8.00;85.50;;;;;;6159476;23;20001;-75
2024/02/26 12:08:07;;;;;;;0.10;0.10;;;8.20;85.90;;;;;;6160034;23;20008;-75
2024/02/26 12:10:40;;;;;;;0.10;0.10;;;8.20;85.50;;;;;;6159569;23;20057;-75
2024/02/26 12:13:14;;;;;;;0.10;0.10;;;8.20;85.40;;;;;;5073687;28;20371;-76
2024/02/26 12:15:41;;;;;;;0.10;0.10;;;8.20;85.20;;;;;;5073796;28;20033;-76
2024/02/26 12:18:09;;;;;;;0.10;0.10;;;8.30;85.50;;;;;;5073582;28;20107;-76
2024/02/26 12:20:35;;;;;;;0.20;0.20;;;8.20;84.80;;;;;;5064265;28;20025;-76
2024/02/26 12:23:04;;;;;;;0.10;0.10;;;8.20;84.40;;;;;;5092550;28;20484;-74
2024/02/26 12:25:31;;;;;;;0.20;0.20;;;8.30;84.60;;;;;;5076106;28;20023;-74
2024/02/26 12:27:57;;;;;;;0.10;0.10;;;8.30;84.70;;;;;;5053326;28;20033;-74
2024/02/26 12:30:25;;;;;;;0.20;0.20;;;8.40;85.20;;;;;;5051866;28;20025;-74
2024/02/26 12:32:52;;;;;;;0.13;0.13;;;8.40;86.30;;;;;;5055327;28;20021;-74
2024/02/26 12:35:18;;;;;;;0.10;0.10;;;8.50;86.50;;;;;;5073430;28;20048;-74
2024/02/26 12:37:44;;;;;;;0.20;0.20;;;8.50;86.50;;;;;;5073483;28;20020;-74
2024/02/26 12:40:11;;;;;;;0.10;0.10;;;8.50;86.30;;;;;;5061565;28;20021;-74
2024/02/26 12:42:41;;;;;;;0.15;0.15;;;8.60;85.70;;;;;;5070664;28;20055;-74
2024/02/26 12:45:09;;;;;;;0.10;0.10;;;8.60;85.50;;;;;;5073441;28;20025;-74
2024/02/26 12:47:41;;;;;;;0.10;0.10;;;8.50;84.90;;;;;;5073340;28;20538;-75
2024/02/26 12:50:08;;;;;;;0.20;0.20;;;8.50;85.30;;;;;;5071940;28;20094;-75
2024/02/26 12:52:34;;;;;;;0.10;0.10;;;8.40;85.50;;;;;;5053103;28;20136;-74
2024/02/26 12:55:03;;;;;;;0.10;0.10;;;8.30;85.20;;;;;;5053374;28;20013;-74
2024/02/26 12:57:33;;;;;;;0.10;0.10;;;8.30;85.70;;;;;;5052833;28;20022;-74
2024/02/26 13:00:00;;;;;;;0.20;0.20;;;8.20;85.50;;;;;;5052801;28;20025;-74
2024/02/26 13:02:27;;;;;;;0.10;0.10;;;8.30;86.10;;;;;;5052608;28;20035;-74
2024/02/26 13:04:54;;;;;;;0.20;0.20;;;8.30;85.80;;;;;;5052828;28;20040;-75
2024/02/26 13:07:21;;;;;;;0.13;0.13;;;8.30;86.10;;;;;;5064540;28;20029;-74
2024/02/26 13:09:46;;;;;;;0.20;0.20;;;8.40;85.40;;;;;;5065735;28;20031;-74
2024/02/26 13:12:12;;;;;;;0.10;0.10;;;8.50;84.60;;;;;;5052453;28;20108;-75
2024/02/26 13:14:38;;;;;;;0.20;0.20;;;8.60;84.60;;;;;;5081658;28;20502;-75
2024/02/26 13:17:04;;;;;;;0.10;0.10;;;8.60;83.80;;;;;;5083623;28;20463;-74
2024/02/26 13:19:29;;;;;;;0.10;0.10;;;8.60;83.60;;;;;;5052563;28;20010;-74
2024/02/26 13:21:55;;;;;;;0.10;0.10;;;8.60;83.90;;;;;;5073201;28;20502;-75
2024/02/26 13:24:22;;;;;;;0.10;0.10;;;8.60;84.00;;;;;;5058807;28;20036;-75
2024/02/26 13:26:54;;;;;;;0.10;0.10;;;8.50;84.00;;;;;;5039525;28;20485;-75
2024/02/26 13:29:20;;;;;;;0.10;0.10;;;8.50;84.10;;;;;;5038827;28;20021;-75
2024/02/26 13:31:49;;;;;;;0.20;0.20;;;8.40;84.20;;;;;;5039145;28;20029;-74
2024/02/26 13:34:30;;;;;;;0.10;0.10;;;8.30;83.60;;;;;;5061120;28;20389;-74
2024/02/26 13:36:56;;;;;;;0.10;0.10;;;8.30;84.20;;;;;;5040377;28;20045;-74
2024/02/26 13:39:23;;;;;;;0.10;0.10;;;8.20;83.50;;;;;;5039002;28;20396;-74
2024/02/26 13:41:49;;;;;;;0.13;0.13;;;8.20;83.80;;;;;;5056508;28;20033;-74
2024/02/26 13:44:15;;;;;;;0.10;0.10;;;8.30;84.10;;;;;;5057144;28;20032;-75
2024/02/26 13:46:40;;;;;;;0.20;0.20;;;8.50;83.60;;;;;;5061297;28;20078;-74
2024/02/26 13:49:09;;;;;;;0.10;0.10;;;8.50;82.20;;;;;;5058312;28;20032;-75
2024/02/26 13:51:35;;;;;;;0.10;0.10;;;8.40;81.20;;;;;;5052869;28;20524;-75
2024/02/26 13:54:01;;;;;;;0.10;0.10;;;8.50;82.00;;;;;;5038705;28;20546;-75
2024/02/26 13:56:27;;;;;;;0.20;0.20;;;8.50;81.80;;;;;;5038476;28;20025;-75
2024/02/26 13:58:53;;;;;;;0.20;0.20;;;8.70;81.80;;;;;;5038354;28;20469;-75
2024/02/26 14:01:18;;;;;;;0.13;0.13;;;8.60;81.90;;;;;;5038766;28;20033;-75
2024/02/26 14:03:44;;;;;;;0.20;0.20;;;8.50;81.90;;;;;;5054173;28;20741;-74
2024/02/26 14:06:11;;;;;;;0.20;0.20;;;8.50;82.10;;;;;;5056857;28;20032;-74
2024/02/26 14:08:37;;;;;;;0.10;0.10;;;8.50;82.50;;;;;;5050377;28;20028;-74
2024/02/26 14:11:02;;;;;;;0.20;0.20;;;8.50;81.90;;;;;;5038321;28;20085;-74
2024/02/26 14:13:28;;;;;;;0.10;0.10;;;8.40;81.90;;;;;;5043108;28;20098;-74
2024/02/26 14:15:54;;;;;;;0.10;0.10;;;8.30;81.90;;;;;;5056739;28;20025;-74
2024/02/26 14:18:19;;;;;;;0.10;0.10;;;8.20;82.10;;;;;;5058109;28;20052;-74
2024/02/26 14:20:45;;;;;;;0.20;0.20;;;8.30;82.30;;;;;;5054100;28;20116;-74
2024/02/26 14:23:10;;;;;;;0.10;0.10;;;8.20;81.80;;;;;;5078007;28;20495;-75
2024/02/26 14:25:36;;;;;;;0.20;0.20;;;8.20;81.50;;;;;;5078102;28;20032;-74
2024/02/26 14:28:02;;;;;;;0.20;0.20;;;8.30;82.20;;;;;;5076539;28;20033;-75
2024/02/26 14:30:28;;;;;;;0.17;0.17;;;8.30;81.80;;;;;;5062893;28;20033;-74
2024/02/26 14:32:54;;;;;;;0.13;0.13;;;8.40;81.50;;;;;;5041739;28;20480;-74
2024/02/26 14:35:20;;;;;;;0.10;0.10;;;8.20;81.40;;;;;;5055829;28;20028;-74
2024/02/26 14:37:47;;;;;;;0.17;0.17;;;8.30;82.00;;;;;;5037721;28;20427;-74
2024/02/26 14:40:13;;;;;;;0.10;0.10;;;8.30;82.20;;;;;;5040562;28;20425;-74
2024/02/26 14:42:39;;;;;;;0.20;0.20;;;8.30;81.90;;;;;;5037931;28;20072;-74
2024/02/26 14:45:08;;;;;;;0.20;0.20;;;8.30;81.70;;;;;;5036270;28;20033;-75
2024/02/26 14:47:34;;;;;;;0.20;0.20;;;8.20;81.00;;;;;;5037567;28;20044;-74
2024/02/26 14:50:00;;;;;;;0.10;0.10;;;8.30;81.80;;;;;;5037346;28;20112;-74
2024/02/26 14:52:25;;;;;;;0.10;0.10;;;8.20;81.70;;;;;;5047036;28;20388;-74
2024/02/26 14:54:51;;;;;;;0.10;0.10;;;8.20;81.90;;;;;;5056062;28;20112;-74
2024/02/26 14:57:16;;;;;;;0.10;0.10;;;8.20;81.90;;;;;;5057436;28;20388;-74
2024/02/26 14:59:43;;;;;;;0.10;0.10;;;8.10;81.60;;;;;;5055614;28;20036;-74
2024/02/26 15:02:09;;;;;;;0.10;0.10;;;8.20;81.40;;;;;;5037375;28;20022;-74
2024/02/26 15:04:38;;;;;;;0.10;0.10;;;8.30;81.70;;;;;;5054649;28;20029;-75
2024/02/26 15:07:04;;;;;;;0.10;0.10;;;8.30;81.80;;;;;;5043670;28;20100;-74
2024/02/26 15:09:30;;;;;;;0.20;0.20;;;8.20;81.60;;;;;;5039731;28;20546;-74
2024/02/26 15:11:57;;;;;;;0.10;0.10;;;8.10;81.30;;;;;;5056746;28;20128;-73
2024/02/26 15:14:23;;;;;;;0.20;0.20;;;8.20;81.80;;;;;;5046423;28;20086;-75
2024/02/26 15:16:49;;;;;;;0.10;0.10;;;8.20;81.00;;;;;;5076987;28;20024;-74
2024/02/26 15:19:14;;;;;;;0.20;0.20;;;8.10;80.60;;;;;;5076914;28;20046;-74
2024/02/26 15:21:44;;;;;;;0.10;0.10;;;8.20;80.40;;;;;;5061484;28;20047;-74
2024/02/26 15:24:16;;;;;;;0.10;0.10;;;8.20;80.00;;;;;;5075617;28;20432;-74
2024/02/26 15:26:41;;;;;;;0.10;0.10;;;8.20;80.10;;;;;;5077098;28;20032;-74
2024/02/26 15:29:10;;;;;;;0.10;0.10;;;8.20;80.30;;;;;;5050900;28;20504;-74
2024/02/26 15:31:37;;;;;;;0.10;0.10;;;8.20;80.30;;;;;;5049237;28;20033;-74
2024/02/26 15:34:03;;;;;;;0.10;0.10;;;8.20;80.20;;;;;;5049884;28;20484;-74
2024/02/26 15:36:29;;;;;;;0.10;0.10;;;8.00;79.90;;;;;;5056925;28;20496;-74
2024/02/26 15:38:55;;;;;;;0.17;0.17;;;8.10;80.30;;;;;;5054422;28;20480;-73
2024/02/26 15:41:20;;;;;;;0.10;0.10;;;8.10;79.90;;;;;;5050285;28;20061;-74
2024/02/26 15:43:46;;;;;;;0.13;0.13;;;8.00;79.80;;;;;;5056449;28;20021;-74
2024/02/26 15:46:11;;;;;;;0.10;0.10;;;8.10;80.50;;;;;;5054193;28;20013;-74
2024/02/26 15:48:37;;;;;;;0.10;0.10;;;8.10;80.20;;;;;;5036545;28;20120;-73
2024/02/26 15:51:03;;;;;;;0.10;0.10;;;8.20;80.20;;;;;;5034896;28;20026;-74
2024/02/26 15:53:29;;;;;;;0.10;0.10;;;8.10;80.00;;;;;;5035224;28;20018;-74
2024/02/26 15:55:55;;;;;;;0.10;0.10;;;8.10;80.30;;;;;;5036352;28;20025;-74
2024/02/26 15:58:20;;;;;;;0.10;0.10;;;8.00;79.70;;;;;;5036111;28;20033;-74
2024/02/26 16:00:46;;;;;;;0.10;0.10;;;7.90;79.80;;;;;;5036199;28;20029;-74
2024/02/26 16:03:13;;;;;;;0.13;0.13;;;8.00;80.40;;;;;;5043046;28;20036;-74
2024/02/26 16:05:38;;;;;;;0.10;0.10;;;8.10;79.70;;;;;;5050188;28;20080;-74
2024/02/26 16:08:20;;;;;;;0.10;0.10;;;8.10;79.60;;;;;;5036389;28;20029;-74
2024/02/26 16:10:46;;;;;;;0.10;0.10;;;8.10;78.90;;;;;;5034780;28;20672;-75
2024/02/26 16:13:12;;;;;;;0.10;0.10;;;8.20;79.10;;;;;;5037279;28;20040;-74
2024/02/26 16:15:42;;;;;;;0.10;0.10;;;8.10;79.20;;;;;;5054899;28;20053;-75
2024/02/26 16:18:08;;;;;;;0.10;0.10;;;8.10;79.00;;;;;;5054678;28;20036;-74
2024/02/26 16:20:34;;;;;;;0.10;0.10;;;8.00;78.90;;;;;;5056167;28;20484;-74
2024/02/26 16:23:04;;;;;;;0.10;0.10;;;8.00;79.10;;;;;;5036669;28;20041;-74
2024/02/26 16:25:30;;;;;;;0.10;0.10;;;7.80;79.00;;;;;;5047201;28;20041;-74
2024/02/26 16:27:56;;;;;;;0.10;0.10;;;7.90;79.30;;;;;;5036115;28;20035;-74
2024/02/26 16:30:22;;;;;;;0.10;0.10;;;8.00;79.70;;;;;;5034913;28;20053;-75
2024/02/26 16:32:47;;;;;;;0.10;0.10;;;7.90;79.30;;;;;;5037546;28;20124;-74
2024/02/26 16:35:13;;;;;;;0.10;0.10;;;8.00;79.70;;;;;;5041341;28;20117;-74
2024/02/26 16:37:40;;;;;;;0.10;0.10;;;8.00;79.50;;;;;;5051394;28;20048;-74
2024/02/26 16:40:08;;;;;;;0.10;0.10;;;8.00;79.30;;;;;;5054745;28;20028;-74
2024/02/26 16:42:34;;;;;;;0.10;0.10;;;8.00;78.60;;;;;;5053441;28;20021;-73
2024/02/26 16:45:03;;;;;;;0.20;0.20;;;7.90;78.70;;;;;;5035865;28;20032;-74
2024/02/26 16:47:29;;;;;;;0.10;0.10;;;8.00;78.70;;;;;;5034853;28;20552;-74
2024/02/26 16:49:55;;;;;;;0.10;0.10;;;8.00;78.50;;;;;;5035871;28;20033;-74
2024/02/26 16:52:22;;;;;;;0.10;0.10;;;8.00;78.40;;;;;;5037441;28;20123;-74
2024/02/26 16:54:48;;;;;;;0.10;0.10;;;7.90;78.20;;;;;;5055821;28;20017;-74
2024/02/26 16:57:15;;;;;;;0.10;0.10;;;7.90;78.30;;;;;;5056252;28;20476;-76
2024/02/26 16:59:40;;;;;;;0.10;0.10;;;7.80;78.40;;;;;;5048686;28;20035;-74
2024/02/26 17:02:07;;;;;;;0.15;0.15;;;7.90;78.30;;;;;;5040909;28;20112;-74
2024/02/26 17:04:33;;;;;;;0.10;0.10;;;7.90;78.50;;;;;;5052335;28;20492;-74
2024/02/26 17:07:00;;;;;;;0.10;0.10;;;7.90;78.00;;;;;;5059656;28;20039;-74
2024/02/26 17:09:25;;;;;;;0.10;0.10;;;7.90;78.10;;;;;;5062163;28;20033;-74
2024/02/26 17:11:53;;;;;;;0.10;0.10;;;7.80;77.50;;;;;;5059134;28;20521;-74
2024/02/26 17:14:18;;;;;;;0.10;0.10;;;7.80;77.10;;;;;;5058929;28;20032;-75
2024/02/26 17:16:44;;;;;;;0.10;0.10;;;7.70;77.40;;;;;;5059420;28;20021;-75
2024/02/26 17:19:10;;;;;;;0.10;0.10;;;7.80;77.70;;;;;;5043068;28;20033;-75
2024/02/26 17:21:36;;;;;;;0.10;0.10;;;7.80;77.40;;;;;;5053362;28;20055;-75
2024/02/26 17:24:01;;;;;;;0.10;0.10;;;7.80;77.50;;;;;;5079202;28;20544;-75
2024/02/26 17:26:27;;;;;;;0.10;0.10;;;7.80;77.20;;;;;;5069766;28;20028;-75
2024/02/26 17:28:53;;;;;;;0.10;0.10;;;7.70;77.20;;;;;;5057770;28;20144;-75
2024/02/26 17:31:19;;;;;;;0.10;0.10;;;7.70;77.10;;;;;;5053262;28;20081;-74
2024/02/26 17:33:47;;;;;;;0.10;0.10;;;7.80;77.40;;;;;;5049905;28;20052;-74
2024/02/26 17:36:12;;;;;;;0.10;0.10;;;7.80;77.20;;;;;;5072325;28;20066;-74
2024/02/26 17:38:40;;;;;;;0.10;0.10;;;7.80;77.30;;;;;;5054443;28;20021;-74
2024/02/26 17:41:07;;;;;;;0.10;0.10;;;7.70;76.80;;;;;;5048845;28;20025;-74
2024/02/26 17:43:33;;;;;;;0.10;0.10;;;7.70;77.70;;;;;;5073954;28;20025;-74
2024/02/26 17:45:59;;;;;;;0.10;0.10;;;7.70;77.80;;;;;;5078848;28;20020;-74
2024/02/26 17:48:24;;;;;;;0.10;0.10;;;7.60;77.90;;;;;;5061518;28;20524;-74
2024/02/26 17:50:50;;;;;;;0.20;0.20;;;7.60;78.10;;;;;;5038509;28;20021;-74
2024/02/26 17:53:17;;;;;;;0.10;0.10;;;7.60;77.90;;;;;;5053856;28;20041;-74
2024/02/26 17:55:43;;;;;;;0.10;0.10;;;7.70;78.20;;;;;;5039083;28;20018;-74
2024/02/26 17:58:09;;;;;;;0.10;0.10;;;7.70;78.10;;;;;;5038739;28;20045;-74
2024/02/26 18:00:35;;;;;;;0.10;0.10;;;7.60;78.00;;;;;;5038092;28;20512;-74
2024/02/26 18:03:01;;;;;;;0.10;0.10;;;7.50;77.70;;;;;;5049884;28;20068;-74
2024/02/26 18:05:27;;;;;;;0.10;0.10;;;7.60;77.50;;;;;;5053510;28;20033;-74
2024/02/26 18:07:53;;;;;;;0.10;0.10;;;7.50;77.50;;;;;;5037110;28;20033;-74
2024/02/26 18:10:23;;;;;;;0.10;0.10;;;7.60;77.50;;;;;;5038447;28;20040;-74
2024/02/26 18:12:49;;;;;;;0.10;0.10;;;7.60;77.40;;;;;;5037840;28;20042;-74
2024/02/26 18:15:14;;;;;;;0.10;0.10;;;7.50;77.50;;;;;;5038167;28;20073;-75
2024/02/26 18:17:44;;;;;;;0.10;0.10;;;7.50;77.60;;;;;;5038420;28;20507;-74
2024/02/26 18:20:10;;;;;;;0.10;0.10;;;7.50;77.10;;;;;;5037975;28;20021;-74
2024/02/26 18:22:37;;;;;;;0.20;0.20;;;7.60;77.40;;;;;;5068626;28;20044;-75
2024/02/26 18:25:03;;;;;;;0.10;0.10;;;7.60;77.50;;;;;;5056672;28;20924;-74